Time;durP1;ratioP1;P1;durP2;ratioP2;P2;SDS_P1;SDS_P2;PMS_P1;PMS_P2;Temp;Humidity;BMP_temperature;BMP_pressure;BME280_temperature;BME280_humidity;BME280_pressure;Samples;Min_cycle;Max_cycle;Signal;HPM_P1;HPM_P2
2023/09/16 00:02:04;;;;;;;2.00;1.30;;;;;;;19.36;nan;60128.03;5092169;28;20169;-68
2023/09/16 00:05:17;;;;;;;1.33;1.23;;;;;;;19.64;nan;60124.31;5092343;28;20621;-68
2023/09/16 00:07:51;;;;;;;1.52;1.23;;;;;;;19.35;nan;60132.13;5090334;28;20173;-68
2023/09/16 00:10:16;;;;;;;1.40;1.25;;;;;;;19.07;nan;59979.41;5091771;28;20688;-68
2023/09/16 00:12:42;;;;;;;0.90;0.90;;;;;;;19.33;nan;59790.09;5092357;28;20227;-67
2023/09/16 00:15:07;;;;;;;0.90;0.90;;;;;;;19.31;nan;59648.63;5090732;28;20261;-68
2023/09/16 00:17:33;;;;;;;1.10;1.02;;;;;;;19.17;nan;59516.75;5092051;28;20166;-68
2023/09/16 00:19:59;;;;;;;1.40;1.30;;;;;;;19.25;nan;59348.94;5092195;28;20182;-67
2023/09/16 00:22:24;;;;;;;1.52;1.10;;;;;;;19.13;nan;59038.72;5092037;28;20632;-67
2023/09/16 00:24:50;;;;;;;1.30;1.20;;;;;;;19.16;nan;58767.09;5091947;28;20558;-68
2023/09/16 00:27:16;;;;;;;1.45;1.35;;;;;;;19.21;nan;58524.09;5091954;28;20180;-68
2023/09/16 00:29:41;;;;;;;1.20;1.10;;;;;;;19.03;nan;58372.69;5091962;28;20170;-68
2023/09/16 00:32:06;;;;;;;1.33;1.20;;;;;;;19.09;nan;58192.88;5091961;28;20197;-68
2023/09/16 00:34:32;;;;;;;1.48;1.33;;;;;;;19.16;nan;57771.47;5091635;28;20254;-67
2023/09/16 00:37:00;;;;;;;1.38;1.25;;;;;;;19.08;nan;56937.28;5091840;28;20209;-67
2023/09/16 00:39:26;;;;;;;1.35;1.25;;;;;;;19.07;nan;56600.56;5091684;28;20184;-67
2023/09/16 00:41:51;;;;;;;1.67;1.55;;;;;;;19.17;nan;56279.53;5091841;28;20240;-67
2023/09/16 00:44:17;;;;;;;1.38;1.27;;;;;;;19.08;nan;55505.38;5091804;28;20230;-68
2023/09/16 00:46:42;;;;;;;2.20;1.20;;;;;;;18.93;nan;53446.22;5091736;28;20195;-67
2023/09/16 00:49:21;;;;;;;1.40;1.30;;;;;;;19.04;nan;53526.44;5091899;28;20173;-68
2023/09/16 00:51:47;;;;;;;1.27;1.17;;;;;;;19.01;nan;52299.19;5092033;28;20157;-67
2023/09/16 00:54:12;;;;;;;1.15;1.15;;;;;;;18.77;nan;51592.22;5094491;28;20193;-68
2023/09/16 00:56:39;;;;;;;2.00;1.40;;;;;;;18.85;nan;51143.13;5096143;28;20191;-67
2023/09/16 00:59:05;;;;;;;1.58;1.15;;;;;;;19.02;nan;49656.88;5095623;28;20545;-68
2023/09/16 01:01:30;;;;;;;2.03;1.50;;;;;;;19.05;nan;48700.34;5095740;28;20248;-67
2023/09/16 01:03:57;;;;;;;1.50;1.40;;;;;;;18.97;nan;49428.66;5094425;28;20276;-67
2023/09/16 01:06:22;;;;;;;1.80;1.30;;;;;;;19.13;nan;50031.06;5095754;28;20189;-67
2023/09/16 01:08:49;;;;;;;2.08;1.40;;;;;;;19.07;nan;47084.56;5095546;28;20173;-68
2023/09/16 01:11:14;;;;;;;1.73;1.63;;;;;;;19.14;nan;47307.44;5095712;28;20246;-68
2023/09/16 01:13:40;;;;;;;1.25;1.15;;;;;;;19.15;nan;46633.09;5095592;28;20280;-68
2023/09/16 01:16:36;;;;;;;1.77;1.25;;;;;;;19.23;nan;49168.06;5095724;28;20648;-67
2023/09/16 01:19:25;;;;;;;2.08;1.35;;;;;;;19.15;nan;46704.88;5093493;28;20200;-68
2023/09/16 01:21:52;;;;;;;1.20;1.13;;;;;;;19.05;nan;44327.47;5089269;28;20736;-68
2023/09/16 01:24:20;;;;;;;2.05;1.55;;;;;;;18.77;nan;40840.13;5097937;28;20173;-67
2023/09/16 01:26:46;;;;;;;1.42;1.33;;;;;;;18.80;nan;40466.50;5098046;28;20256;-67
2023/09/16 01:29:13;;;;;;;1.73;1.63;;;;;;;19.01;nan;40693.94;5115788;28;20263;-67
2023/09/16 01:31:40;;;;;;;3.35;1.33;;;;;;;18.71;nan;39258.53;5115480;28;20253;-67
2023/09/16 01:34:30;;;;;;;1.40;1.25;;;;;;;18.15;nan;36225.25;5115636;28;20221;-67
2023/09/16 01:36:58;;;;;;;1.55;1.45;;;;;;;18.77;nan;31996.91;5114546;28;20188;-67
2023/09/16 01:39:25;;;;;;;1.33;1.23;;;;;;;18.58;nan;29686.91;5097001;28;20176;-67
2023/09/16 01:41:55;;;;;;;1.10;1.10;;;;;;;18.78;nan;29699.31;5115466;28;20225;-67
2023/09/16 01:44:20;;;;;;;1.38;1.23;;;;;;;18.75;nan;27728.66;5115506;28;20169;-67
2023/09/16 01:46:46;;;;;;;2.10;1.38;;;;;;;18.71;nan;26414.75;5115328;28;20165;-67
2023/09/16 01:49:11;;;;;;;1.50;1.40;;;;;;;18.75;nan;24778.03;5115472;28;20203;-67
2023/09/16 01:51:37;;;;;;;1.38;1.27;;;;;;;18.68;nan;22481.53;5114959;28;20234;-67
2023/09/16 01:54:03;;;;;;;1.88;1.35;;;;;;;18.48;nan;21163.19;5114817;28;20196;-67
2023/09/16 01:56:29;;;;;;;1.55;1.45;;;;;;;16.75;nan;17822.59;5096838;28;20711;-67
2023/09/16 01:58:54;;;;;;;1.17;1.15;;;;;;;18.63;nan;16264.09;5115076;28;20179;-68
2023/09/16 02:01:19;;;;;;;1.77;1.58;;;;;;;18.49;nan;14625.69;5114966;28;20197;-68
2023/09/16 02:03:45;;;;;;;1.40;1.30;;;;;;;18.63;nan;14957.34;5115106;28;20662;-68
2023/09/16 02:06:10;;;;;;;1.23;1.13;;;;;;;18.55;nan;14954.44;5114732;28;20181;-68
2023/09/16 02:08:40;;;;;;;2.20;1.08;;;;;;;18.79;nan;14962.97;5100723;28;20188;-67
2023/09/16 02:11:16;;;;;;;1.30;1.20;;;;;;;18.60;nan;13976.44;5094201;28;20300;-68
2023/09/16 02:13:42;;;;;;;1.50;1.40;;;;;;;18.75;nan;13655.00;5094388;28;20192;-68
2023/09/16 02:16:10;;;;;;;1.50;1.40;;;;;;;18.68;nan;11041.09;5094602;28;20173;-68
2023/09/16 02:18:35;;;;;;;1.20;1.10;;;;;;;18.70;nan;9736.66;5094130;28;20157;-68
2023/09/16 02:21:00;;;;;;;1.27;1.17;;;;;;;18.77;nan;10391.00;5094612;28;20617;-68
2023/09/16 02:23:26;;;;;;;2.05;1.88;;;;;;;18.54;nan;9732.22;5094340;28;20180;-68
2023/09/16 02:25:51;;;;;;;1.50;1.40;;;;;;;18.58;nan;7451.22;5094096;28;20256;-67
2023/09/16 02:28:17;;;;;;;1.65;1.38;;;;;;;18.56;nan;7450.63;5094345;28;20230;-68
2023/09/16 02:30:42;;;;;;;5.05;2.92;;;;;;;18.56;nan;5495.97;5094158;28;20540;-68
2023/09/16 02:33:07;;;;;;;1.92;1.83;;;;;;;18.75;nan;4196.88;5094015;28;20260;-68
2023/09/16 02:35:33;;;;;;;1.00;0.98;;;;;;;18.90;nan;5177.06;5093956;28;20203;-67
2023/09/16 02:37:58;;;;;;;1.38;1.20;;;;;;;18.95;nan;9743.47;5094061;28;20173;-68
2023/09/16 02:40:24;;;;;;;2.55;1.83;;;;;;;18.92;nan;8437.66;5094156;28;20235;-68
2023/09/16 02:42:50;;;;;;;2.13;1.50;;;;;;;19.07;nan;7462.72;5093748;28;20173;-68
2023/09/16 02:45:16;;;;;;;2.15;1.70;;;;;;;18.89;nan;7458.66;5093977;28;20180;-68
2023/09/16 02:48:40;;;;;;;2.90;1.27;;;;;;;18.93;nan;7785.59;5093495;28;20652;-67
2023/09/16 02:52:04;;;;;;;1.60;1.50;;;;;;;19.20;nan;8771.03;5084838;28;20579;-67
2023/09/16 02:54:31;;;;;;;1.67;1.38;;;;;;;19.04;nan;9093.28;5056885;28;20289;-69
2023/09/16 02:57:04;;;;;;;2.20;1.73;;;;;;;19.33;nan;11713.75;5093537;28;20166;-67
2023/09/16 02:59:31;;;;;;;0.90;0.90;;;;;;;19.39;nan;13022.88;5093398;28;20274;-67
2023/09/16 03:01:56;;;;;;;3.30;1.27;;;;;;;19.30;nan;10079.69;5093355;28;20169;-68
2023/09/16 03:04:21;;;;;;;1.40;1.30;;;;;;;19.09;nan;10726.69;5093825;28;20179;-68
2023/09/16 03:06:47;;;;;;;1.23;1.13;;;;;;;19.25;nan;10078.13;5093212;28;20168;-68
2023/09/16 03:09:12;;;;;;;1.50;1.33;;;;;;;19.15;nan;8443.53;5093686;28;20195;-68
2023/09/16 03:11:38;;;;;;;1.83;1.73;;;;;;;19.20;nan;8118.38;5092850;28;20278;-68
2023/09/16 03:14:03;;;;;;;2.20;1.58;;;;;;;19.01;nan;7787.56;5093281;28;20566;-67
2023/09/16 03:16:29;;;;;;;1.42;1.27;;;;;;;19.02;nan;7787.81;5092800;28;20189;-68
2023/09/16 03:18:54;;;;;;;1.50;1.40;;;;;;;19.22;nan;7792.59;5093454;28;20668;-68
2023/09/16 03:21:23;;;;;;;1.60;1.50;;;;;;;19.06;nan;8114.88;5093296;28;20165;-68
2023/09/16 03:23:49;;;;;;;1.52;1.42;;;;;;;19.17;nan;7791.38;5093100;28;20185;-67
2023/09/16 03:26:15;;;;;;;1.25;1.23;;;;;;;19.26;nan;7793.69;5092898;28;20178;-67
2023/09/16 03:28:45;;;;;;;1.55;1.10;;;;;;;19.09;nan;7463.34;5093075;28;20173;-68
2023/09/16 03:31:11;;;;;;;2.42;1.55;;;;;;;18.11;nan;7765.75;5092986;28;20686;-67
2023/09/16 03:33:37;;;;;;;1.48;1.38;;;;;;;19.26;nan;6814.84;5092788;28;20197;-67
2023/09/16 03:36:04;;;;;;;1.38;1.27;;;;;;;19.12;nan;6811.75;5092999;28;20644;-67
2023/09/16 03:38:31;;;;;;;3.08;1.63;;;;;;;19.21;nan;7466.22;5091538;28;20268;-68
2023/09/16 03:40:57;;;;;;;2.10;1.90;;;;;;;19.36;nan;7469.69;5092678;28;20181;-68
2023/09/16 03:43:23;;;;;;;1.38;1.27;;;;;;;19.35;nan;7795.78;5092954;28;20165;-68
2023/09/16 03:45:48;;;;;;;1.50;1.40;;;;;;;19.28;nan;7794.19;5092554;28;20673;-68
2023/09/16 03:48:13;;;;;;;1.27;1.17;;;;;;;19.14;nan;7464.41;5092705;28;20673;-68
2023/09/16 03:50:39;;;;;;;2.33;2.13;;;;;;;19.13;nan;7138.00;5092691;28;20587;-69
2023/09/16 03:53:05;;;;;;;1.42;1.33;;;;;;;19.36;nan;8122.50;5092489;28;20169;-69
2023/09/16 03:55:31;;;;;;;1.55;1.45;;;;;;;19.24;nan;8119.38;5092137;28;20177;-69
2023/09/16 03:57:56;;;;;;;1.60;1.50;;;;;;;19.29;nan;6163.28;5092424;28;20173;-69
2023/09/16 04:00:24;;;;;;;1.98;1.77;;;;;;;19.17;nan;4530.63;5092227;28;20165;-69
2023/09/16 04:02:50;;;;;;;1.45;1.35;;;;;;;19.19;nan;4530.91;5092714;28;20216;-68
2023/09/16 04:05:37;;;;;;;1.98;1.42;;;;;;;19.04;nan;2899.16;5092475;28;20180;-68
2023/09/16 04:08:04;;;;;;;2.28;1.40;;;;;;;19.07;nan;1597.09;5091140;28;20180;-68
2023/09/16 04:10:30;;;;;;;1.63;1.42;;;;;;;19.10;nan;620.88;5092423;28;20742;-69
2023/09/16 04:12:56;;;;;;;1.42;1.30;;;;;;;18.94;nan;1269.88;5092228;28;20174;-68
2023/09/16 04:15:21;;;;;;;1.77;1.65;;;;;;;19.01;nan;1270.75;5092068;28;20227;-69
2023/09/16 04:17:46;;;;;;;1.33;1.23;;;;;;;19.23;nan;1273.81;5092102;28;20173;-69
2023/09/16 04:20:12;;;;;;;1.73;1.60;;;;;;;19.24;nan;2576.69;5091816;28;20249;-68
2023/09/16 04:22:38;;;;;;;2.75;2.10;;;;;;;19.44;nan;4535.63;5091977;28;20169;-68
2023/09/16 04:25:04;;;;;;;2.75;1.50;;;;;;;19.63;nan;6170.50;5092073;28;20177;-68
2023/09/16 04:27:29;;;;;;;1.50;1.40;;;;;;;19.49;nan;6493.69;5090892;28;20715;-69
2023/09/16 04:29:55;;;;;;;1.33;1.23;;;;;;;19.71;nan;7478.13;5092081;28;20177;-69
2023/09/16 04:32:20;;;;;;;3.65;2.50;;;;;;;19.81;nan;9440.44;5091801;28;20187;-69
2023/09/16 04:34:45;;;;;;;1.23;1.13;;;;;;;19.74;nan;11072.34;5091731;28;20284;-69
2023/09/16 04:37:11;;;;;;;1.75;1.65;;;;;;;19.80;nan;12709.22;5092196;28;20523;-69
2023/09/16 04:39:36;;;;;;;1.27;1.17;;;;;;;20.03;nan;14352.91;5091925;28;20200;-68
2023/09/16 04:42:10;;;;;;;1.77;1.58;;;;;;;20.05;nan;14680.81;5091552;28;20205;-68
2023/09/16 04:44:38;;;;;;;1.80;1.70;;;;;;;19.94;nan;16314.13;5091685;28;20167;-69
2023/09/16 04:47:07;;;;;;;1.67;1.35;;;;;;;20.14;nan;16977.09;5091629;28;20169;-69
2023/09/16 04:49:34;;;;;;;1.60;1.25;;;;;;;20.22;nan;17635.75;5091687;28;20157;-68
2023/09/16 04:52:00;;;;;;;1.95;1.67;;;;;;;19.97;nan;18936.41;5091568;28;20571;-68
2023/09/16 04:54:26;;;;;;;1.58;1.33;;;;;;;20.20;nan;18946.06;5091514;28;20284;-68
2023/09/16 04:56:51;;;;;;;1.23;1.23;;;;;;;20.03;nan;21234.41;5091556;28;20671;-69
2023/09/16 04:59:16;;;;;;;1.92;1.35;;;;;;;20.06;nan;22876.19;5090511;28;20177;-68
2023/09/16 05:01:42;;;;;;;1.02;0.93;;;;;;;20.27;nan;23871.66;5090194;28;20182;-68
2023/09/16 05:04:07;;;;;;;2.13;1.98;;;;;;;20.30;nan;26501.69;5097458;28;20204;-69
2023/09/16 05:06:33;;;;;;;1.50;1.40;;;;;;;20.36;nan;30451.72;5100403;28;20176;-69
2023/09/16 05:08:59;;;;;;;1.38;1.27;;;;;;;20.19;nan;32087.38;5091379;28;20165;-68
2023/09/16 05:11:24;;;;;;;1.48;1.25;;;;;;;20.26;nan;36729.94;5106127;28;20227;-69
2023/09/16 05:13:51;;;;;;;1.90;1.70;;;;;;;20.49;nan;40832.56;5111608;28;20189;-69
2023/09/16 05:16:17;;;;;;;1.70;1.60;;;;;;;20.34;nan;33743.13;5111847;28;20168;-68
2023/09/16 05:18:42;;;;;;;2.05;1.67;;;;;;;20.21;nan;24197.25;5111583;28;20176;-68
2023/09/16 05:21:08;;;;;;;3.83;2.95;;;;;;;20.18;nan;23210.66;5111724;28;20169;-70
2023/09/16 05:23:34;;;;;;;1.60;1.50;;;;;;;20.03;nan;22874.72;5091717;28;20612;-69
2023/09/16 05:25:59;;;;;;;2.45;1.92;;;;;;;20.16;nan;18944.34;5104415;28;20177;-68
2023/09/16 05:28:24;;;;;;;2.35;2.15;;;;;;;19.73;nan;9764.97;5095981;28;20636;-68
2023/09/16 05:30:50;;;;;;;2.92;2.40;;;;;;;19.62;nan;9108.47;5091406;28;20169;-69
2023/09/16 05:33:15;;;;;;;3.83;2.70;;;;;;;19.78;nan;7806.22;5110845;28;20181;-69
2023/09/16 05:35:41;;;;;;;2.45;2.20;;;;;;;19.65;nan;9109.41;5111512;28;20172;-69
2023/09/16 05:38:07;;;;;;;2.53;1.75;;;;;;;19.91;nan;10423.41;5111545;28;20204;-69
2023/09/16 05:40:33;;;;;;;2.75;1.65;;;;;;;19.86;nan;10095.28;5114641;28;20555;-69
2023/09/16 05:42:58;;;;;;;3.75;2.47;;;;;;;19.74;nan;8131.94;5115125;28;20176;-68
2023/09/16 05:45:24;;;;;;;2.40;2.20;;;;;;;19.62;nan;5517.69;5115153;28;20173;-69
2023/09/16 05:47:51;;;;;;;2.00;1.73;;;;;;;19.50;nan;6494.03;5115157;28;20189;-70
2023/09/16 05:50:17;;;;;;;2.58;2.30;;;;;;;19.63;nan;5191.66;5115392;28;20169;-68
2023/09/16 05:52:43;;;;;;;2.58;2.08;;;;;;;19.66;nan;4866.03;5115309;28;20169;-68
2023/09/16 05:55:09;;;;;;;2.50;2.25;;;;;;;19.69;nan;8457.13;5114760;28;20821;-68
2023/09/16 05:57:34;;;;;;;1.85;1.75;;;;;;;19.94;nan;15004.38;5115116;28;20172;-68
2023/09/16 06:00:00;;;;;;;1.90;1.48;;;;;;;20.13;nan;12065.41;5114927;28;20184;-68
2023/09/16 06:02:25;;;;;;;1.67;1.40;;;;;;;20.24;nan;13050.72;5114722;28;20255;-68
2023/09/16 06:04:51;;;;;;;2.55;1.95;;;;;;;20.24;nan;12068.88;5114955;28;20180;-68
2023/09/16 06:07:17;;;;;;;4.32;1.95;;;;;;;20.28;nan;13379.44;5100377;28;20193;-68
2023/09/16 06:09:42;;;;;;;1.38;1.27;;;;;;;20.23;nan;13377.56;5109603;28;20183;-68
2023/09/16 06:12:08;;;;;;;1.67;1.58;;;;;;;20.23;nan;13377.75;5097218;28;20184;-68
2023/09/16 06:14:33;;;;;;;2.53;2.13;;;;;;;20.14;nan;10103.22;5096673;28;20209;-68
2023/09/16 06:16:59;;;;;;;1.95;1.80;;;;;;;20.31;nan;17639.22;5114863;28;20169;-68
2023/09/16 06:19:26;;;;;;;1.83;1.73;;;;;;;20.25;nan;13050.91;5114771;28;20176;-68
2023/09/16 06:21:52;;;;;;;4.95;2.60;;;;;;;20.23;nan;13050.41;5114428;28;20623;-68
2023/09/16 06:24:17;;;;;;;2.95;2.13;;;;;;;20.52;nan;16336.28;5114681;28;20176;-67
2023/09/16 06:26:43;;;;;;;1.58;1.48;;;;;;;20.43;nan;16004.88;5114693;28;20164;-69
2023/09/16 06:29:08;;;;;;;2.20;1.77;;;;;;;20.31;nan;16983.44;5114456;28;20164;-68
2023/09/16 06:31:34;;;;;;;1.67;1.58;;;;;;;20.32;nan;17639.63;5114673;28;20159;-69
2023/09/16 06:33:59;;;;;;;2.67;2.22;;;;;;;20.38;nan;17969.75;5095425;28;20246;-69
2023/09/16 06:36:24;;;;;;;2.70;1.83;;;;;;;20.30;nan;16655.50;5113712;28;20169;-69
2023/09/16 06:38:50;;;;;;;3.17;2.33;;;;;;;20.21;nan;14686.72;5114055;28;20176;-68
2023/09/16 06:41:15;;;;;;;2.80;1.60;;;;;;;20.29;nan;15017.13;5113964;28;20169;-69
2023/09/16 06:43:41;;;;;;;1.45;1.33;;;;;;;20.43;nan;14694.44;5113928;28;20206;-69
2023/09/16 06:46:06;;;;;;;3.20;2.15;;;;;;;20.61;nan;19947.91;5113975;28;20172;-68
2023/09/16 06:48:31;;;;;;;5.32;2.35;;;;;;;20.64;nan;23233.34;5113803;28;20165;-68
2023/09/16 06:50:57;;;;;;;1.63;1.48;;;;;;;20.57;nan;18633.63;5112560;28;20168;-68
2023/09/16 06:53:22;;;;;;;1.92;1.83;;;;;;;20.62;nan;16995.94;5113645;28;20210;-68
2023/09/16 06:55:48;;;;;;;1.88;1.60;;;;;;;20.73;nan;22252.19;5113536;28;20312;-68
2023/09/16 06:58:14;;;;;;;1.42;1.33;;;;;;;20.38;nan;15347.84;5113959;28;20164;-68
2023/09/16 07:00:39;;;;;;;2.78;2.03;;;;;;;20.52;nan;13387.34;5113456;28;20234;-68
2023/09/16 07:03:05;;;;;;;2.17;1.70;;;;;;;20.55;nan;14698.75;5113728;28;20161;-68
2023/09/16 07:05:31;;;;;;;2.30;2.10;;;;;;;20.52;nan;16336.09;5112924;28;20248;-69
2023/09/16 07:07:58;;;;;;;1.45;1.35;;;;;;;20.42;nan;16004.50;5113661;28;20251;-68
2023/09/16 07:10:24;;;;;;;3.15;1.98;;;;;;;20.65;nan;17324.88;5113474;28;20220;-68
2023/09/16 07:12:49;;;;;;;1.13;1.02;;;;;;;20.56;nan;15682.06;5113337;28;20708;-69
2023/09/16 07:15:15;;;;;;;1.75;1.45;;;;;;;20.55;nan;14698.56;5113039;28;20744;-69
2023/09/16 07:17:40;;;;;;;1.65;1.40;;;;;;;20.66;nan;15358.00;5113239;28;20191;-68
2023/09/16 07:20:06;;;;;;;2.08;1.50;;;;;;;20.71;nan;16999.31;5113044;28;20202;-70
2023/09/16 07:22:31;;;;;;;1.52;1.42;;;;;;;20.67;nan;17325.88;5112922;28;20247;-68
2023/09/16 07:24:57;;;;;;;2.70;1.70;;;;;;;20.80;nan;15691.06;5113262;28;20165;-68
2023/09/16 07:27:22;;;;;;;1.65;1.55;;;;;;;20.64;nan;15685.06;5113200;28;20240;-68
2023/09/16 07:29:48;;;;;;;2.67;1.90;;;;;;;20.86;nan;16349.03;5113190;28;20246;-68
2023/09/16 07:32:13;;;;;;;1.67;1.38;;;;;;;17.91;nan;16563.47;5113233;28;20174;-69
2023/09/16 07:34:38;;;;;;;1.73;1.63;;;;;;;21.01;nan;19308.69;5112586;28;20198;-68
2023/09/16 07:37:04;;;;;;;1.50;1.35;;;;;;;21.04;nan;19310.22;5113429;28;20561;-68
2023/09/16 07:39:30;;;;;;;1.65;1.55;;;;;;;21.29;nan;28531.81;5112942;28;20207;-67
2023/09/16 07:41:56;;;;;;;2.40;1.67;;;;;;;21.25;nan;34463.50;5094856;28;20168;-67
2023/09/16 07:44:21;;;;;;;1.75;1.50;;;;;;;21.14;nan;33137.25;5112985;28;20178;-67
2023/09/16 07:46:48;;;;;;;1.80;1.70;;;;;;;21.33;nan;41489.28;5112663;28;20176;-67
2023/09/16 07:49:14;;;;;;;1.60;1.50;;;;;;;21.18;nan;42221.72;5112699;28;20165;-67
2023/09/16 07:51:40;;;;;;;1.98;1.70;;;;;;;21.44;nan;40707.44;5112519;28;20173;-68
2023/09/16 07:54:08;;;;;;;1.98;1.77;;;;;;;21.18;nan;35449.03;5112060;28;20195;-68
2023/09/16 07:56:34;;;;;;;1.20;1.10;;;;;;;21.07;nan;37783.34;5112396;28;20552;-68
2023/09/16 07:58:59;;;;;;;1.63;1.50;;;;;;;21.08;nan;36881.25;5112348;28;20643;-67
2023/09/16 08:01:24;;;;;;;1.63;1.27;;;;;;;21.23;nan;42199.53;5112691;28;20624;-68
2023/09/16 08:03:50;;;;;;;2.95;1.80;;;;;;;21.20;nan;45120.53;5112352;28;20260;-68
2023/09/16 08:06:15;;;;;;;2.58;2.03;;;;;;;20.98;nan;48327.56;5113022;28;20169;-67
2023/09/16 08:08:41;;;;;;;4.53;1.67;;;;;;;20.91;nan;43091.28;5112519;28;20223;-67
2023/09/16 08:11:06;;;;;;;1.63;1.52;;;;;;;21.04;nan;43347.47;5112379;28;20216;-67
2023/09/16 08:13:32;;;;;;;1.80;1.70;;;;;;;20.99;nan;42284.16;5112364;28;20189;-66
2023/09/16 08:15:58;;;;;;;2.10;1.92;;;;;;;21.00;nan;41946.22;5112147;28;20176;-68
2023/09/16 08:18:23;;;;;;;1.52;1.42;;;;;;;21.29;nan;42248.72;5111983;28;20563;-68
2023/09/16 08:20:49;;;;;;;7.18;2.28;;;;;;;20.96;nan;33454.69;5112433;28;20192;-67
2023/09/16 08:23:14;;;;;;;1.80;1.50;;;;;;;21.10;nan;34453.94;5112143;28;20175;-67
2023/09/16 08:25:39;;;;;;;1.83;1.55;;;;;;;20.94;nan;28840.84;5112057;28;20549;-67
2023/09/16 08:28:05;;;;;;;1.92;1.77;;;;;;;20.99;nan;29172.81;5112014;28;20183;-66
2023/09/16 08:30:30;;;;;;;1.90;1.70;;;;;;;21.08;nan;27860.97;5093869;28;20215;-66
2023/09/16 08:32:56;;;;;;;1.40;1.30;;;;;;;20.93;nan;29828.16;5112058;28;20165;-68
2023/09/16 08:35:25;;;;;;;1.63;1.52;;;;;;;20.92;nan;23575.53;5112193;28;20655;-68
2023/09/16 08:37:51;;;;;;;1.98;1.80;;;;;;;20.92;nan;22589.47;5112140;28;20163;-68
2023/09/16 08:40:17;;;;;;;1.73;1.63;;;;;;;21.22;nan;23919.34;5112168;28;20251;-68
2023/09/16 08:43:06;;;;;;;1.83;1.73;;;;;;;21.40;nan;25245.13;5111841;28;20610;-67
2023/09/16 08:45:34;;;;;;;2.15;1.73;;;;;;;21.49;nan;23604.06;5111051;28;20267;-68
2023/09/16 08:48:05;;;;;;;1.20;1.13;;;;;;;21.51;nan;27226.81;5112116;28;20168;-68
2023/09/16 08:50:32;;;;;;;1.48;1.38;;;;;;;21.44;nan;22285.75;5103222;28;20177;-67
2023/09/16 08:53:02;;;;;;;1.38;1.27;;;;;;;21.16;nan;28524.19;5101114;28;20230;-67
2023/09/16 08:55:29;;;;;;;1.48;1.38;;;;;;;21.80;nan;30870.03;5097633;28;20223;-67
2023/09/16 08:58:00;;;;;;;2.17;1.58;;;;;;;22.21;nan;30564.91;5091371;28;20197;-68
2023/09/16 09:00:26;;;;;;;0.98;0.90;;;;;;;22.48;nan;43160.28;5108804;28;20172;-68
2023/09/16 09:02:51;;;;;;;4.32;1.88;;;;;;;22.47;nan;41199.22;5110560;28;20161;-69
2023/09/16 09:05:18;;;;;;;1.67;1.30;;;;;;;22.73;nan;42791.56;5110676;28;20204;-69
2023/09/16 09:07:44;;;;;;;1.65;1.40;;;;;;;22.95;nan;36564.44;5110441;28;20711;-69
2023/09/16 09:10:12;;;;;;;2.03;1.75;;;;;;;22.99;nan;43673.41;5110295;28;20208;-68
2023/09/16 09:12:40;;;;;;;3.72;2.58;;;;;;;23.15;nan;48601.00;5112108;28;20301;-68
2023/09/16 09:15:10;;;;;;;1.65;1.55;;;;;;;23.39;nan;43919.13;5114881;28;20200;-69
2023/09/16 09:17:39;;;;;;;2.85;2.53;;;;;;;23.56;nan;47985.97;5116228;28;20164;-71
2023/09/16 09:20:08;;;;;;;2.08;1.50;;;;;;;23.95;nan;52232.25;5116100;28;20597;-66
2023/09/16 09:22:37;;;;;;;2.78;1.60;;;;;;;24.05;nan;55591.50;5116028;28;20176;-67
2023/09/16 09:25:03;;;;;;;2.22;1.65;;;;;;;24.08;nan;58118.69;5115992;28;20255;-68
2023/09/16 09:27:28;;;;;;;2.00;1.40;;;;;;;24.11;nan;58366.53;5096918;28;20318;-67
2023/09/16 09:29:54;;;;;;;1.20;1.13;;;;;;;23.82;nan;58658.56;5115508;28;20169;-69
2023/09/16 09:32:21;;;;;;;1.40;1.30;;;;;;;23.92;nan;58675.16;5115783;28;20657;-69
2023/09/16 09:34:46;;;;;;;1.33;1.25;;;;;;;23.96;nan;58519.88;5115691;28;20238;-67
2023/09/16 09:37:16;;;;;;;2.10;1.70;;;;;;;23.92;nan;58244.38;5115381;28;20172;-67
2023/09/16 09:39:42;;;;;;;1.45;1.35;;;;;;;19.31;nan;58082.53;5114993;28;20554;-68
2023/09/16 09:42:08;;;;;;;2.05;1.50;;;;;;;24.07;nan;58067.50;5115381;28;20191;-67
2023/09/16 09:44:34;;;;;;;1.70;1.48;;;;;;;24.07;nan;57496.44;5115848;28;20160;-67
2023/09/16 09:47:00;;;;;;;1.67;1.40;;;;;;;24.16;nan;57089.34;5115597;28;20176;-67
2023/09/16 09:49:26;;;;;;;6.18;1.70;;;;;;;24.39;nan;57556.56;5115908;28;20191;-68
2023/09/16 09:51:52;;;;;;;1.77;1.67;;;;;;;24.61;nan;58684.06;5120986;28;20244;-67
2023/09/16 09:54:18;;;;;;;1.77;1.67;;;;;;;24.88;nan;59441.50;5120833;28;20287;-67
2023/09/16 09:56:44;;;;;;;1.40;1.30;;;;;;;25.38;nan;60287.97;5122308;28;20632;-68
2023/09/16 09:59:09;;;;;;;1.83;1.55;;;;;;;25.66;nan;60629.25;5121430;28;20173;-68
2023/09/16 10:01:35;;;;;;;1.55;1.20;;;;;;;26.01;nan;61118.53;5120504;28;20165;-68
2023/09/16 10:04:03;;;;;;;1.50;1.40;;;;;;;26.01;nan;61312.28;5114913;28;20596;-68
2023/09/16 10:06:29;;;;;;;3.20;1.90;;;;;;;25.98;nan;61549.25;5115023;28;20161;-68
2023/09/16 10:08:55;;;;;;;2.08;1.48;;;;;;;26.01;nan;61670.47;5114948;28;20671;-68
2023/09/16 10:11:21;;;;;;;1.35;1.25;;;;;;;25.66;nan;61623.63;5115298;28;20285;-68
2023/09/16 10:13:50;;;;;;;2.17;1.63;;;;;;;25.40;nan;61539.88;5114997;28;20656;-68
2023/09/16 10:16:15;;;;;;;1.80;1.70;;;;;;;24.82;nan;61587.38;5115345;28;20173;-68
2023/09/16 10:18:41;;;;;;;1.48;1.38;;;;;;;25.49;nan;61592.44;5115022;28;20179;-68
2023/09/16 10:21:07;;;;;;;1.85;1.70;;;;;;;25.13;nan;61543.97;5114978;28;20635;-68
2023/09/16 10:23:33;;;;;;;1.58;1.45;;;;;;;24.83;nan;61402.94;5114747;28;20153;-68
2023/09/16 10:25:59;;;;;;;1.60;1.45;;;;;;;25.08;nan;61497.06;5113538;28;20651;-68
2023/09/16 10:28:25;;;;;;;2.72;1.38;;;;;;;25.36;nan;61517.03;5114498;28;20265;-68
2023/09/16 10:30:51;;;;;;;1.58;1.48;;;;;;;24.95;nan;61476.59;5114580;28;20655;-68
2023/09/16 10:33:19;;;;;;;2.30;1.83;;;;;;;24.88;nan;61322.31;5114583;28;20168;-68
2023/09/16 10:35:44;;;;;;;3.45;2.97;;;;;;;24.87;nan;61449.28;5114276;28;20248;-68
2023/09/16 10:38:11;;;;;;;1.45;1.33;;;;;;;25.20;nan;61595.78;5114348;28;20200;-68
2023/09/16 10:40:38;;;;;;;1.42;1.33;;;;;;;24.86;nan;61474.28;5114419;28;20501;-68
2023/09/16 10:43:04;;;;;;;2.00;1.65;;;;;;;24.70;nan;61456.78;5114426;28;20640;-69
2023/09/16 10:45:31;;;;;;;3.03;2.25;;;;;;;24.74;nan;61469.13;5095907;28;20676;-68
2023/09/16 10:47:59;;;;;;;3.70;2.15;;;;;;;24.48;nan;61550.09;5114108;28;20271;-68
2023/09/16 10:50:25;;;;;;;1.65;1.55;;;;;;;24.04;nan;61542.75;5114029;28;20169;-69
2023/09/16 10:53:15;;;;;;;3.30;2.38;;;;;;;24.84;nan;61469.97;5114067;28;20186;-69
2023/09/16 10:55:43;;;;;;;2.25;1.85;;;;;;;24.83;nan;61523.16;5114035;28;20193;-68
2023/09/16 10:58:19;;;;;;;1.85;1.67;;;;;;;24.89;nan;61524.72;5114011;28;20161;-68
2023/09/16 11:00:49;;;;;;;2.00;1.48;;;;;;;24.74;nan;61486.88;5095804;28;20192;-69
2023/09/16 11:03:15;;;;;;;1.77;1.67;;;;;;;24.57;nan;61411.34;5095877;28;20201;-68
2023/09/16 11:05:40;;;;;;;2.97;1.92;;;;;;;24.74;nan;61356.75;5113820;28;20255;-69
2023/09/16 11:08:07;;;;;;;1.67;1.58;;;;;;;24.51;nan;61213.31;5113643;28;20172;-68
2023/09/16 11:10:32;;;;;;;1.63;1.45;;;;;;;24.24;nan;61246.22;5113794;28;20220;-69
2023/09/16 11:12:59;;;;;;;2.35;1.90;;;;;;;24.13;nan;61090.84;5113812;28;20314;-68
2023/09/16 11:15:35;;;;;;;2.55;2.15;;;;;;;23.80;nan;60954.13;5113688;28;20211;-69
2023/09/16 11:18:05;;;;;;;2.60;1.98;;;;;;;24.01;nan;61118.56;5113857;28;20168;-68
2023/09/16 11:20:33;;;;;;;2.50;1.83;;;;;;;24.23;nan;61103.56;4657935;28;21034;-69
2023/09/16 11:23:02;;;;;;;1.75;1.65;;;;;;;24.26;nan;60990.00;4859918;28;20263;-68
2023/09/16 11:25:36;;;;;;;2.13;1.92;;;;;;;24.08;nan;60808.00;5093261;28;20160;-69
2023/09/16 11:28:08;;;;;;;3.08;2.25;;;;;;;24.19;nan;60786.34;5092711;28;20201;-68
2023/09/16 11:30:36;;;;;;;2.60;1.95;;;;;;;24.49;nan;60832.94;5093347;28;20161;-69
2023/09/16 11:33:01;;;;;;;1.45;1.35;;;;;;;24.31;nan;60710.44;5093227;28;20199;-68
2023/09/16 11:35:27;;;;;;;3.90;2.47;;;;;;;24.25;nan;60829.06;5093316;28;20193;-68
2023/09/16 11:37:56;;;;;;;2.47;2.03;;;;;;;24.16;nan;60649.88;5092077;28;20181;-68
2023/09/16 11:40:29;;;;;;;2.50;2.30;;;;;;;24.00;nan;60637.81;5092644;28;20234;-68
2023/09/16 11:42:55;;;;;;;1.58;1.48;;;;;;;23.81;nan;60490.88;5074772;28;20182;-69
2023/09/16 11:45:21;;;;;;;2.42;1.30;;;;;;;23.84;nan;60488.97;5092550;28;20173;-69
2023/09/16 11:47:48;;;;;;;1.95;1.67;;;;;;;23.86;nan;60561.66;5092466;28;20178;-68
2023/09/16 11:50:25;;;;;;;3.35;1.67;;;;;;;23.73;nan;60662.50;5092580;28;20559;-69
2023/09/16 11:52:51;;;;;;;2.88;2.20;;;;;;;23.73;nan;60856.09;5091872;28;20185;-68